Airfield :
LOGIN :

Register | Disclaimer

   EN    FR    IT 

 










Legend :    VFR   Marginal VFR   IFR   Intensive IFR   Very Intensive IFR
Visi :
Ceiling :
>= 8 km
>= 3000ft
5 to 8 km
1000 to 3000 ft
1500m to 5 km
500 to 1000 ft
800 to 1500m
200 to 500 ft
< 800m
< 200 ft
Symbols :   Thunderstorms  Fog  Heavy snow  Heavy precipitations  Wind > 20 kt
SIGMETs :     Misc.  Thunderstorms  Icing  Turbulence  Mountain Waves  Volcanic Ashes






- Airport Elevation : 74 ft
- IATA code : EIN


EHEH - Eindhoven

CURRENT METAR :
  • 211725Z AUTO 24005KT 9999 FEW039 07/05 Q1011 BLU TEMPO SCT015 SCT020CB BKN025

EXPIRED METARs :
  • 211655Z AUTO 30010KT 230V010 9999 DZ FEW021 SCT035 BKN041 08/06 Q1010 BLU TEMPO SCT015 SCT020CB BKN025
  • 211625Z AUTO 24007KT 230V290 9999 FEW099 08/06 Q1009 BLU TEMPO SCT015 SCT020CB BKN025
  • 211555Z AUTO 25005KT 220V280 9999 NCD 08/06 Q1009 BLU TEMPO SCT015 SCT020CB BKN025
  • 211538Z AUTO 25005KT 230V290 9999 FEW015CB SCT057 OVC093 09/07 Q1009 BLU TEMPO 28020G30KT 4000 SHRA SCT015 SCT020CB BKN025
  • 211525Z AUTO 27005KT 240V330 9999 FEW015CB BKN052 BKN057 09/07 Q1009 RERA BLU TEMPO 28020G30KT 4000 SHRA SCT015 SCT020CB BKN025
  • 211508Z AUTO 30009KT 250V020 6000 RA SCT015CB SCT019 BKN024 09/06 Q1008 WHT TEMPO 28020G30KT 4000 SHRA SCT015 SCT020CB BKN025
  • 211507Z AUTO 29009KT 240V020 5000 RA FEW015CB SCT025 BKN032 10/08 Q1008 WHT TEMPO 28020G30KT 4000 SHRA SCT015 SCT020CB BKN025
  • 211455Z AUTO 27009KT 240V320 9999 FEW015CB 11/08 Q1008 REDZ BLU TEMPO 28020G30KT 4000 SHRA SCT015 SCT020CB BKN025

TAF TAF EHEH
Valid from the 21 at 12:00 until the 22 at 18:00 UTC


211133Z 2112/2218 25015G25KT 9999 SCT030 BKN045
TEMPO 2112/2114 28017G30KT 4000 SHRA RA SCT012 BKN015 SCT020CB
BECMG 2113/2116 28012KT
TEMPO 2114/2118 28013G25KT 4500 -SHRA SCT015 SCT020CB
BECMG 2118/2121 25007KT
PROB30
TEMPO 2118/2121 28013G25KT 4500 -SHRA SCT015 SCT020CB
BECMG 2206/2209 24013G25KT
PROB30
TEMPO 2209/2214 25015G30KT 4500 -SHRA SCT015 SCT020CB
TEMPO 2214/2217 25015G30KT 4000 SHRA SCT015 SCT025CB BKN030
BECMG 2216/2218 25008KT



MET'MAP, your aeronautical weather chart ! - Copyright ORBIFLY December 2007 - Disclaimer

ORBIFLY MET'MAP TEAM :

Programming & Development : Alexandra Zaïnal
Concept & original design : Baudouin d'Aumeries
Assistance for programming : Marc-Olivier Méhu
Technical & hardware support : Manuel Goepfert

Contact : metmap@orbifly.com




SOURCES & CREDITS :

   NOAA